sensor_id;sensor_type;location;lat;lon;timestamp;P1;durP1;ratioP1;P2;durP2;ratioP2
68765;SDS011;55756;45.582;11.484;2023-02-21T00:00:10;117.63;;;59.83;;
68765;SDS011;55756;45.582;11.484;2023-02-21T00:02:54;123.45;;;61.97;;
68765;SDS011;55756;45.582;11.484;2023-02-21T00:05:39;117.80;;;60.17;;
68765;SDS011;55756;45.582;11.484;2023-02-21T00:08:24;125.05;;;61.78;;
68765;SDS011;55756;45.582;11.484;2023-02-21T00:11:08;124.18;;;62.00;;
68765;SDS011;55756;45.582;11.484;2023-02-21T00:13:52;125.70;;;61.58;;
68765;SDS011;55756;45.582;11.484;2023-02-21T00:16:37;120.55;;;61.95;;
68765;SDS011;55756;45.582;11.484;2023-02-21T00:19:21;127.25;;;62.90;;
68765;SDS011;55756;45.582;11.484;2023-02-21T00:22:05;118.25;;;59.63;;
68765;SDS011;55756;45.582;11.484;2023-02-21T00:24:50;120.13;;;61.70;;
68765;SDS011;55756;45.582;11.484;2023-02-21T00:27:34;123.10;;;62.88;;
68765;SDS011;55756;45.582;11.484;2023-02-21T00:30:19;122.75;;;62.65;;
68765;SDS011;55756;45.582;11.484;2023-02-21T00:33:03;125.70;;;61.47;;
68765;SDS011;55756;45.582;11.484;2023-02-21T00:35:47;116.00;;;61.40;;
68765;SDS011;55756;45.582;11.484;2023-02-21T00:38:32;124.53;;;63.50;;
68765;SDS011;55756;45.582;11.484;2023-02-21T00:41:16;122.45;;;64.60;;
68765;SDS011;55756;45.582;11.484;2023-02-21T00:44:00;119.88;;;60.30;;
68765;SDS011;55756;45.582;11.484;2023-02-21T00:46:45;111.45;;;58.17;;
68765;SDS011;55756;45.582;11.484;2023-02-21T00:49:29;112.50;;;57.20;;
68765;SDS011;55756;45.582;11.484;2023-02-21T00:52:13;114.82;;;60.38;;
68765;SDS011;55756;45.582;11.484;2023-02-21T00:54:58;114.97;;;59.65;;
68765;SDS011;55756;45.582;11.484;2023-02-21T00:57:43;111.13;;;57.50;;
68765;SDS011;55756;45.582;11.484;2023-02-21T01:00:28;120.82;;;58.70;;
68765;SDS011;55756;45.582;11.484;2023-02-21T01:03:12;115.53;;;58.95;;
68765;SDS011;55756;45.582;11.484;2023-02-21T01:05:56;116.70;;;59.08;;
68765;SDS011;55756;45.582;11.484;2023-02-21T01:08:41;117.50;;;58.97;;
68765;SDS011;55756;45.582;11.484;2023-02-21T01:11:26;115.82;;;58.97;;
68765;SDS011;55756;45.582;11.484;2023-02-21T01:14:11;123.97;;;61.15;;
68765;SDS011;55756;45.582;11.484;2023-02-21T01:16:58;124.47;;;62.40;;
68765;SDS011;55756;45.582;11.484;2023-02-21T01:19:42;121.53;;;61.30;;
68765;SDS011;55756;45.582;11.484;2023-02-21T01:22:27;115.50;;;60.83;;
68765;SDS011;55756;45.582;11.484;2023-02-21T01:25:12;127.20;;;61.38;;
68765;SDS011;55756;45.582;11.484;2023-02-21T01:27:58;121.88;;;59.72;;
68765;SDS011;55756;45.582;11.484;2023-02-21T01:30:42;117.93;;;59.03;;
68765;SDS011;55756;45.582;11.484;2023-02-21T01:33:35;112.00;;;58.15;;
68765;SDS011;55756;45.582;11.484;2023-02-21T01:36:20;109.65;;;57.17;;
68765;SDS011;55756;45.582;11.484;2023-02-21T01:39:04;113.53;;;57.63;;
68765;SDS011;55756;45.582;11.484;2023-02-21T01:41:49;112.05;;;57.97;;
68765;SDS011;55756;45.582;11.484;2023-02-21T01:50:12;115.95;;;57.70;;
68765;SDS011;55756;45.582;11.484;2023-02-21T01:52:57;115.72;;;57.45;;
68765;SDS011;55756;45.582;11.484;2023-02-21T01:55:44;107.28;;;54.95;;
68765;SDS011;55756;45.582;11.484;2023-02-21T01:58:29;110.97;;;53.67;;
68765;SDS011;55756;45.582;11.484;2023-02-21T02:01:18;106.35;;;52.97;;
68765;SDS011;55756;45.582;11.484;2023-02-21T02:04:09;95.82;;;50.90;;
68765;SDS011;55756;45.582;11.484;2023-02-21T02:06:54;98.78;;;51.05;;
68765;SDS011;55756;45.582;11.484;2023-02-21T02:09:38;95.88;;;50.90;;
68765;SDS011;55756;45.582;11.484;2023-02-21T02:12:28;110.05;;;53.83;;
68765;SDS011;55756;45.582;11.484;2023-02-21T02:35:25;111.45;;;54.60;;
68765;SDS011;55756;45.582;11.484;2023-02-21T02:40:59;104.30;;;53.47;;
68765;SDS011;55756;45.582;11.484;2023-02-21T02:43:44;108.85;;;54.78;;
68765;SDS011;55756;45.582;11.484;2023-02-21T02:46:27;109.47;;;55.65;;
68765;SDS011;55756;45.582;11.484;2023-02-21T02:49:17;102.47;;;53.90;;
68765;SDS011;55756;45.582;11.484;2023-02-21T02:51:46;102.75;;;52.30;;
68765;SDS011;55756;45.582;11.484;2023-02-21T02:54:14;109.40;;;54.92;;
68765;SDS011;55756;45.582;11.484;2023-02-21T02:56:39;106.05;;;54.40;;
68765;SDS011;55756;45.582;11.484;2023-02-21T02:59:39;110.13;;;53.55;;
68765;SDS011;55756;45.582;11.484;2023-02-21T03:02:45;105.40;;;52.10;;
68765;SDS011;55756;45.582;11.484;2023-02-21T03:05:01;105.13;;;53.88;;
68765;SDS011;55756;45.582;11.484;2023-02-21T03:10:20;109.47;;;54.50;;
68765;SDS011;55756;45.582;11.484;2023-02-21T03:12:50;111.25;;;54.97;;
68765;SDS011;55756;45.582;11.484;2023-02-21T03:15:32;103.80;;;53.10;;
68765;SDS011;55756;45.582;11.484;2023-02-21T03:20:44;107.38;;;53.65;;
68765;SDS011;55756;45.582;11.484;2023-02-21T03:23:16;115.43;;;56.65;;
68765;SDS011;55756;45.582;11.484;2023-02-21T03:25:43;112.13;;;56.17;;
68765;SDS011;55756;45.582;11.484;2023-02-21T03:28:11;107.80;;;54.95;;
68765;SDS011;55756;45.582;11.484;2023-02-21T03:30:40;98.03;;;51.70;;
68765;SDS011;55756;45.582;11.484;2023-02-21T03:33:07;99.63;;;53.08;;
68765;SDS011;55756;45.582;11.484;2023-02-21T03:35:33;97.28;;;52.17;;
68765;SDS011;55756;45.582;11.484;2023-02-21T03:37:59;99.53;;;52.40;;
68765;SDS011;55756;45.582;11.484;2023-02-21T03:40:30;100.35;;;51.40;;
68765;SDS011;55756;45.582;11.484;2023-02-21T03:42:59;103.15;;;50.88;;
68765;SDS011;55756;45.582;11.484;2023-02-21T03:45:30;96.03;;;50.20;;
68765;SDS011;55756;45.582;11.484;2023-02-21T03:48:10;98.95;;;49.15;;
68765;SDS011;55756;45.582;11.484;2023-02-21T03:50:37;93.30;;;49.47;;
68765;SDS011;55756;45.582;11.484;2023-02-21T03:53:03;91.50;;;47.30;;
68765;SDS011;55756;45.582;11.484;2023-02-21T03:55:30;93.15;;;47.60;;
68765;SDS011;55756;45.582;11.484;2023-02-21T03:58:03;90.93;;;47.42;;
68765;SDS011;55756;45.582;11.484;2023-02-21T04:00:34;94.93;;;49.15;;
68765;SDS011;55756;45.582;11.484;2023-02-21T04:03:01;92.55;;;47.92;;
68765;SDS011;55756;45.582;11.484;2023-02-21T04:05:49;93.13;;;49.10;;
68765;SDS011;55756;45.582;11.484;2023-02-21T04:08:18;94.88;;;49.83;;
68765;SDS011;55756;45.582;11.484;2023-02-21T04:10:44;98.03;;;50.55;;
68765;SDS011;55756;45.582;11.484;2023-02-21T04:13:10;92.95;;;48.78;;
68765;SDS011;55756;45.582;11.484;2023-02-21T04:15:41;97.97;;;50.30;;
68765;SDS011;55756;45.582;11.484;2023-02-21T04:18:07;100.38;;;50.92;;
68765;SDS011;55756;45.582;11.484;2023-02-21T04:20:35;95.70;;;49.93;;
68765;SDS011;55756;45.582;11.484;2023-02-21T04:23:02;99.47;;;50.88;;
68765;SDS011;55756;45.582;11.484;2023-02-21T04:25:28;97.28;;;50.80;;
68765;SDS011;55756;45.582;11.484;2023-02-21T04:28:00;93.32;;;48.55;;
68765;SDS011;55756;45.582;11.484;2023-02-21T04:30:26;99.03;;;50.10;;
68765;SDS011;55756;45.582;11.484;2023-02-21T04:32:52;97.30;;;50.65;;
68765;SDS011;55756;45.582;11.484;2023-02-21T04:35:18;97.38;;;50.78;;
68765;SDS011;55756;45.582;11.484;2023-02-21T04:37:44;93.97;;;48.38;;
68765;SDS011;55756;45.582;11.484;2023-02-21T04:40:11;90.95;;;47.28;;
68765;SDS011;55756;45.582;11.484;2023-02-21T04:42:37;94.68;;;49.60;;
68765;SDS011;55756;45.582;11.484;2023-02-21T04:45:03;94.32;;;48.90;;
68765;SDS011;55756;45.582;11.484;2023-02-21T04:47:29;95.15;;;48.00;;
68765;SDS011;55756;45.582;11.484;2023-02-21T04:49:55;96.63;;;49.22;;
68765;SDS011;55756;45.582;11.484;2023-02-21T04:52:20;96.85;;;48.78;;
68765;SDS011;55756;45.582;11.484;2023-02-21T04:54:46;90.75;;;48.53;;
68765;SDS011;55756;45.582;11.484;2023-02-21T04:57:13;88.55;;;46.40;;
68765;SDS011;55756;45.582;11.484;2023-02-21T04:59:39;83.13;;;45.15;;
68765;SDS011;55756;45.582;11.484;2023-02-21T05:02:06;83.03;;;45.13;;
68765;SDS011;55756;45.582;11.484;2023-02-21T05:04:33;80.20;;;44.20;;
68765;SDS011;55756;45.582;11.484;2023-02-21T05:07:02;83.70;;;45.55;;
68765;SDS011;55756;45.582;11.484;2023-02-21T05:09:28;76.13;;;41.83;;
68765;SDS011;55756;45.582;11.484;2023-02-21T05:11:54;76.95;;;42.67;;
68765;SDS011;55756;45.582;11.484;2023-02-21T05:14:20;89.85;;;46.42;;
68765;SDS011;55756;45.582;11.484;2023-02-21T05:16:46;93.72;;;49.10;;
68765;SDS011;55756;45.582;11.484;2023-02-21T05:19:11;95.05;;;49.28;;
68765;SDS011;55756;45.582;11.484;2023-02-21T05:21:37;97.25;;;48.83;;
68765;SDS011;55756;45.582;11.484;2023-02-21T05:24:06;92.03;;;48.58;;
68765;SDS011;55756;45.582;11.484;2023-02-21T05:26:33;96.72;;;48.55;;
68765;SDS011;55756;45.582;11.484;2023-02-21T05:29:01;90.68;;;47.65;;
68765;SDS011;55756;45.582;11.484;2023-02-21T05:31:27;93.80;;;49.40;;
68765;SDS011;55756;45.582;11.484;2023-02-21T05:33:53;104.20;;;52.95;;
68765;SDS011;55756;45.582;11.484;2023-02-21T05:36:19;102.63;;;51.25;;
68765;SDS011;55756;45.582;11.484;2023-02-21T05:41:15;106.63;;;50.30;;
68765;SDS011;55756;45.582;11.484;2023-02-21T05:43:42;102.50;;;49.88;;
68765;SDS011;55756;45.582;11.484;2023-02-21T05:48:52;103.45;;;49.30;;
68765;SDS011;55756;45.582;11.484;2023-02-21T05:51:18;99.68;;;49.30;;
68765;SDS011;55756;45.582;11.484;2023-02-21T05:53:44;97.28;;;48.67;;
68765;SDS011;55756;45.582;11.484;2023-02-21T05:56:10;108.18;;;52.80;;
68765;SDS011;55756;45.582;11.484;2023-02-21T05:58:37;104.63;;;50.88;;
68765;SDS011;55756;45.582;11.484;2023-02-21T06:01:03;107.28;;;50.92;;
68765;SDS011;55756;45.582;11.484;2023-02-21T06:03:29;99.78;;;50.38;;
68765;SDS011;55756;45.582;11.484;2023-02-21T06:05:54;104.53;;;51.17;;
68765;SDS011;55756;45.582;11.484;2023-02-21T06:08:20;107.28;;;52.67;;
68765;SDS011;55756;45.582;11.484;2023-02-21T06:10:46;108.68;;;50.17;;
68765;SDS011;55756;45.582;11.484;2023-02-21T06:13:12;105.97;;;52.72;;
68765;SDS011;55756;45.582;11.484;2023-02-21T06:15:37;108.93;;;51.70;;
68765;SDS011;55756;45.582;11.484;2023-02-21T06:18:03;95.60;;;49.65;;
68765;SDS011;55756;45.582;11.484;2023-02-21T06:20:29;88.78;;;47.53;;
68765;SDS011;55756;45.582;11.484;2023-02-21T06:22:54;91.95;;;45.53;;
68765;SDS011;55756;45.582;11.484;2023-02-21T06:25:20;81.72;;;43.35;;
68765;SDS011;55756;45.582;11.484;2023-02-21T06:27:46;86.10;;;45.72;;
68765;SDS011;55756;45.582;11.484;2023-02-21T06:30:12;87.97;;;44.90;;
68765;SDS011;55756;45.582;11.484;2023-02-21T06:32:38;90.70;;;46.15;;
68765;SDS011;55756;45.582;11.484;2023-02-21T06:35:04;97.47;;;48.58;;
68765;SDS011;55756;45.582;11.484;2023-02-21T06:37:29;104.40;;;50.05;;
68765;SDS011;55756;45.582;11.484;2023-02-21T06:39:55;104.00;;;54.50;;
68765;SDS011;55756;45.582;11.484;2023-02-21T06:42:21;101.68;;;52.15;;
68765;SDS011;55756;45.582;11.484;2023-02-21T06:44:47;97.72;;;51.58;;
68765;SDS011;55756;45.582;11.484;2023-02-21T06:47:14;97.35;;;49.90;;
68765;SDS011;55756;45.582;11.484;2023-02-21T06:49:41;98.40;;;50.15;;
68765;SDS011;55756;45.582;11.484;2023-02-21T06:52:07;100.13;;;50.78;;
68765;SDS011;55756;45.582;11.484;2023-02-21T06:54:33;103.85;;;51.97;;
68765;SDS011;55756;45.582;11.484;2023-02-21T06:56:59;104.70;;;53.67;;
68765;SDS011;55756;45.582;11.484;2023-02-21T06:59:26;93.45;;;50.38;;
68765;SDS011;55756;45.582;11.484;2023-02-21T07:01:55;105.65;;;50.70;;
68765;SDS011;55756;45.582;11.484;2023-02-21T07:04:21;96.00;;;50.97;;
68765;SDS011;55756;45.582;11.484;2023-02-21T07:06:48;98.25;;;50.80;;
68765;SDS011;55756;45.582;11.484;2023-02-21T07:09:14;101.32;;;50.85;;
68765;SDS011;55756;45.582;11.484;2023-02-21T07:11:40;95.20;;;48.95;;
68765;SDS011;55756;45.582;11.484;2023-02-21T07:14:06;97.38;;;48.42;;
68765;SDS011;55756;45.582;11.484;2023-02-21T07:16:32;92.95;;;49.38;;
68765;SDS011;55756;45.582;11.484;2023-02-21T07:18:58;96.35;;;49.03;;
68765;SDS011;55756;45.582;11.484;2023-02-21T07:21:24;96.60;;;49.50;;
68765;SDS011;55756;45.582;11.484;2023-02-21T07:23:51;103.00;;;50.35;;
68765;SDS011;55756;45.582;11.484;2023-02-21T07:26:17;101.50;;;52.10;;
68765;SDS011;55756;45.582;11.484;2023-02-21T07:28:43;108.90;;;51.80;;
68765;SDS011;55756;45.582;11.484;2023-02-21T07:31:11;102.40;;;52.00;;
68765;SDS011;55756;45.582;11.484;2023-02-21T07:33:37;102.18;;;51.55;;
68765;SDS011;55756;45.582;11.484;2023-02-21T07:36:02;109.03;;;51.83;;
68765;SDS011;55756;45.582;11.484;2023-02-21T07:38:29;96.15;;;51.50;;
68765;SDS011;55756;45.582;11.484;2023-02-21T07:40:59;102.25;;;51.13;;
68765;SDS011;55756;45.582;11.484;2023-02-21T07:43:27;126.90;;;64.45;;
68765;SDS011;55756;45.582;11.484;2023-02-21T07:45:54;125.18;;;64.90;;
68765;SDS011;55756;45.582;11.484;2023-02-21T07:48:20;129.95;;;64.80;;
68765;SDS011;55756;45.582;11.484;2023-02-21T07:50:46;117.75;;;58.92;;
68765;SDS011;55756;45.582;11.484;2023-02-21T07:53:14;119.72;;;60.10;;
68765;SDS011;55756;45.582;11.484;2023-02-21T07:55:41;120.15;;;58.95;;
68765;SDS011;55756;45.582;11.484;2023-02-21T07:58:06;108.85;;;57.05;;
68765;SDS011;55756;45.582;11.484;2023-02-21T08:00:33;113.22;;;57.50;;
68765;SDS011;55756;45.582;11.484;2023-02-21T08:02:58;113.07;;;56.90;;
68765;SDS011;55756;45.582;11.484;2023-02-21T08:05:25;122.25;;;58.80;;
68765;SDS011;55756;45.582;11.484;2023-02-21T08:07:51;120.63;;;62.75;;
68765;SDS011;55756;45.582;11.484;2023-02-21T08:10:21;130.25;;;67.25;;
68765;SDS011;55756;45.582;11.484;2023-02-21T08:12:49;122.95;;;62.97;;
68765;SDS011;55756;45.582;11.484;2023-02-21T08:15:15;127.63;;;62.08;;
68765;SDS011;55756;45.582;11.484;2023-02-21T08:17:41;132.80;;;67.50;;
68765;SDS011;55756;45.582;11.484;2023-02-21T08:20:07;131.43;;;65.18;;
68765;SDS011;55756;45.582;11.484;2023-02-21T08:22:35;140.05;;;68.13;;
68765;SDS011;55756;45.582;11.484;2023-02-21T08:25:01;130.75;;;68.55;;
68765;SDS011;55756;45.582;11.484;2023-02-21T08:27:26;139.77;;;69.45;;
68765;SDS011;55756;45.582;11.484;2023-02-21T08:29:55;144.98;;;70.30;;
68765;SDS011;55756;45.582;11.484;2023-02-21T08:32:21;139.05;;;67.97;;
68765;SDS011;55756;45.582;11.484;2023-02-21T08:34:47;144.13;;;70.38;;
68765;SDS011;55756;45.582;11.484;2023-02-21T08:37:14;141.95;;;71.88;;
68765;SDS011;55756;45.582;11.484;2023-02-21T08:39:47;139.43;;;72.72;;
68765;SDS011;55756;45.582;11.484;2023-02-21T08:42:15;146.13;;;73.85;;
68765;SDS011;55756;45.582;11.484;2023-02-21T08:44:44;140.00;;;71.47;;
68765;SDS011;55756;45.582;11.484;2023-02-21T08:47:14;162.73;;;81.20;;
68765;SDS011;55756;45.582;11.484;2023-02-21T08:49:44;158.00;;;75.85;;
68765;SDS011;55756;45.582;11.484;2023-02-21T08:52:12;149.30;;;73.75;;
68765;SDS011;55756;45.582;11.484;2023-02-21T08:54:42;158.10;;;77.13;;
68765;SDS011;55756;45.582;11.484;2023-02-21T08:57:08;147.07;;;75.97;;
68765;SDS011;55756;45.582;11.484;2023-02-21T08:59:36;147.00;;;76.25;;
68765;SDS011;55756;45.582;11.484;2023-02-21T09:02:09;146.40;;;74.57;;
68765;SDS011;55756;45.582;11.484;2023-02-21T09:04:43;143.27;;;74.68;;
68765;SDS011;55756;45.582;11.484;2023-02-21T09:07:13;144.23;;;74.85;;
68765;SDS011;55756;45.582;11.484;2023-02-21T09:09:40;151.38;;;75.05;;
68765;SDS011;55756;45.582;11.484;2023-02-21T09:12:06;154.40;;;75.70;;
68765;SDS011;55756;45.582;11.484;2023-02-21T09:17:01;161.45;;;79.15;;
68765;SDS011;55756;45.582;11.484;2023-02-21T09:19:31;165.57;;;81.45;;
68765;SDS011;55756;45.582;11.484;2023-02-21T09:21:57;154.13;;;81.25;;
68765;SDS011;55756;45.582;11.484;2023-02-21T09:24:26;161.50;;;80.45;;
68765;SDS011;55756;45.582;11.484;2023-02-21T09:26:56;155.32;;;78.50;;
68765;SDS011;55756;45.582;11.484;2023-02-21T09:29:26;150.73;;;74.50;;
68765;SDS011;55756;45.582;11.484;2023-02-21T09:31:51;151.85;;;75.10;;
68765;SDS011;55756;45.582;11.484;2023-02-21T09:34:17;155.20;;;75.18;;
68765;SDS011;55756;45.582;11.484;2023-02-21T09:36:43;149.13;;;76.63;;
68765;SDS011;55756;45.582;11.484;2023-02-21T09:39:09;151.07;;;73.18;;
68765;SDS011;55756;45.582;11.484;2023-02-21T09:41:36;146.45;;;72.75;;
68765;SDS011;55756;45.582;11.484;2023-02-21T09:44:03;156.80;;;75.20;;
68765;SDS011;55756;45.582;11.484;2023-02-21T09:46:35;144.15;;;73.10;;
68765;SDS011;55756;45.582;11.484;2023-02-21T09:49:11;150.30;;;71.00;;
68765;SDS011;55756;45.582;11.484;2023-02-21T09:51:49;151.77;;;71.35;;
68765;SDS011;55756;45.582;11.484;2023-02-21T09:54:23;141.63;;;68.72;;
68765;SDS011;55756;45.582;11.484;2023-02-21T09:56:52;144.10;;;71.70;;
68765;SDS011;55756;45.582;11.484;2023-02-21T09:59:21;142.68;;;70.05;;
68765;SDS011;55756;45.582;11.484;2023-02-21T10:01:55;138.00;;;66.90;;
68765;SDS011;55756;45.582;11.484;2023-02-21T10:04:56;138.98;;;68.05;;
68765;SDS011;55756;45.582;11.484;2023-02-21T10:07:52;138.55;;;68.55;;
68765;SDS011;55756;45.582;11.484;2023-02-21T10:15:47;130.60;;;67.38;;
68765;SDS011;55756;45.582;11.484;2023-02-21T10:21:28;138.38;;;67.30;;
68765;SDS011;55756;45.582;11.484;2023-02-21T10:23:57;136.32;;;67.22;;
68765;SDS011;55756;45.582;11.484;2023-02-21T10:26:30;148.52;;;72.75;;
68765;SDS011;55756;45.582;11.484;2023-02-21T10:29:02;146.15;;;72.80;;
68765;SDS011;55756;45.582;11.484;2023-02-21T10:31:42;145.68;;;74.05;;
68765;SDS011;55756;45.582;11.484;2023-02-21T10:34:15;148.85;;;73.95;;
68765;SDS011;55756;45.582;11.484;2023-02-21T10:36:52;138.25;;;70.85;;
68765;SDS011;55756;45.582;11.484;2023-02-21T10:39:21;145.93;;;72.55;;
68765;SDS011;55756;45.582;11.484;2023-02-21T10:41:56;152.60;;;74.82;;
68765;SDS011;55756;45.582;11.484;2023-02-21T10:44:30;157.35;;;78.05;;
68765;SDS011;55756;45.582;11.484;2023-02-21T10:49:33;157.57;;;78.47;;
68765;SDS011;55756;45.582;11.484;2023-02-21T10:54:35;166.55;;;80.10;;
68765;SDS011;55756;45.582;11.484;2023-02-21T10:57:01;158.77;;;78.00;;
68765;SDS011;55756;45.582;11.484;2023-02-21T10:59:34;163.32;;;79.55;;
68765;SDS011;55756;45.582;11.484;2023-02-21T11:04:51;157.88;;;77.70;;
68765;SDS011;55756;45.582;11.484;2023-02-21T11:07:19;151.75;;;77.40;;
68765;SDS011;55756;45.582;11.484;2023-02-21T11:09:47;152.07;;;76.00;;
68765;SDS011;55756;45.582;11.484;2023-02-21T11:14:41;145.55;;;73.45;;
68765;SDS011;55756;45.582;11.484;2023-02-21T11:19:54;144.43;;;76.40;;
68765;SDS011;55756;45.582;11.484;2023-02-21T11:24:59;144.07;;;75.32;;
68765;SDS011;55756;45.582;11.484;2023-02-21T11:27:32;154.70;;;77.32;;
68765;SDS011;55756;45.582;11.484;2023-02-21T11:30:00;155.45;;;77.38;;
68765;SDS011;55756;45.582;11.484;2023-02-21T11:35:00;156.18;;;78.05;;
68765;SDS011;55756;45.582;11.484;2023-02-21T11:37:46;157.48;;;81.43;;
68765;SDS011;55756;45.582;11.484;2023-02-21T11:43:20;162.43;;;83.03;;
68765;SDS011;55756;45.582;11.484;2023-02-21T11:54:14;161.68;;;82.40;;
68765;SDS011;55756;45.582;11.484;2023-02-21T12:02:00;159.95;;;82.75;;
68765;SDS011;55756;45.582;11.484;2023-02-21T12:07:43;162.82;;;84.68;;
68765;SDS011;55756;45.582;11.484;2023-02-21T12:10:38;171.60;;;88.38;;
68765;SDS011;55756;45.582;11.484;2023-02-21T12:26:26;175.48;;;87.22;;
68765;SDS011;55756;45.582;11.484;2023-02-21T12:40:34;167.70;;;89.45;;
68765;SDS011;55756;45.582;11.484;2023-02-21T12:46:06;175.45;;;90.18;;
68765;SDS011;55756;45.582;11.484;2023-02-21T12:51:20;177.35;;;89.20;;
68765;SDS011;55756;45.582;11.484;2023-02-21T12:54:16;165.15;;;86.60;;
68765;SDS011;55756;45.582;11.484;2023-02-21T12:57:00;172.68;;;87.68;;
68765;SDS011;55756;45.582;11.484;2023-02-21T13:00:22;174.07;;;88.82;;
68765;SDS011;55756;45.582;11.484;2023-02-21T13:05:44;160.95;;;85.22;;
68765;SDS011;55756;45.582;11.484;2023-02-21T13:08:28;166.55;;;88.13;;
68765;SDS011;55756;45.582;11.484;2023-02-21T13:11:16;169.70;;;88.22;;
68765;SDS011;55756;45.582;11.484;2023-02-21T13:13:56;167.77;;;86.90;;
68765;SDS011;55756;45.582;11.484;2023-02-21T13:16:23;173.57;;;88.78;;
68765;SDS011;55756;45.582;11.484;2023-02-21T13:27:15;162.02;;;85.22;;
68765;SDS011;55756;45.582;11.484;2023-02-21T13:30:16;167.27;;;85.00;;
68765;SDS011;55756;45.582;11.484;2023-02-21T13:32:51;171.50;;;84.80;;
68765;SDS011;55756;45.582;11.484;2023-02-21T13:35:28;164.55;;;85.78;;
68765;SDS011;55756;45.582;11.484;2023-02-21T13:37:57;162.70;;;83.93;;
68765;SDS011;55756;45.582;11.484;2023-02-21T13:40:31;160.07;;;84.30;;
68765;SDS011;55756;45.582;11.484;2023-02-21T13:42:58;165.13;;;85.20;;
68765;SDS011;55756;45.582;11.484;2023-02-21T13:45:28;160.35;;;83.18;;
68765;SDS011;55756;45.582;11.484;2023-02-21T13:58:34;153.57;;;80.43;;
68765;SDS011;55756;45.582;11.484;2023-02-21T14:03:55;154.13;;;78.53;;
68765;SDS011;55756;45.582;11.484;2023-02-21T14:08:59;158.57;;;81.80;;
68765;SDS011;55756;45.582;11.484;2023-02-21T14:11:29;159.45;;;81.18;;
68765;SDS011;55756;45.582;11.484;2023-02-21T14:14:02;155.93;;;80.22;;
68765;SDS011;55756;45.582;11.484;2023-02-21T14:16:56;153.35;;;77.43;;
68765;SDS011;55756;45.582;11.484;2023-02-21T14:20:13;149.23;;;73.88;;
68765;SDS011;55756;45.582;11.484;2023-02-21T14:22:14;144.13;;;74.10;;
68765;SDS011;55756;45.582;11.484;2023-02-21T14:24:45;157.52;;;77.95;;
68765;SDS011;55756;45.582;11.484;2023-02-21T14:29:43;170.85;;;86.65;;
68765;SDS011;55756;45.582;11.484;2023-02-21T14:37:03;164.00;;;83.53;;
68765;SDS011;55756;45.582;11.484;2023-02-21T14:39:47;163.10;;;83.18;;
68765;SDS011;55756;45.582;11.484;2023-02-21T14:45:34;160.85;;;83.68;;
68765;SDS011;55756;45.582;11.484;2023-02-21T14:49:12;169.15;;;85.68;;
68765;SDS011;55756;45.582;11.484;2023-02-21T15:08:26;161.20;;;83.30;;
68765;SDS011;55756;45.582;11.484;2023-02-21T15:10:54;166.20;;;81.70;;
68765;SDS011;55756;45.582;11.484;2023-02-21T15:13:33;162.32;;;82.47;;
68765;SDS011;55756;45.582;11.484;2023-02-21T15:16:04;164.93;;;82.03;;
68765;SDS011;55756;45.582;11.484;2023-02-21T15:18:37;159.02;;;81.65;;
68765;SDS011;55756;45.582;11.484;2023-02-21T15:23:40;170.73;;;83.25;;
68765;SDS011;55756;45.582;11.484;2023-02-21T15:28:43;168.43;;;84.18;;
68765;SDS011;55756;45.582;11.484;2023-02-21T15:31:10;173.40;;;83.88;;
68765;SDS011;55756;45.582;11.484;2023-02-21T15:33:38;166.82;;;84.25;;
68765;SDS011;55756;45.582;11.484;2023-02-21T15:36:17;166.88;;;84.45;;
68765;SDS011;55756;45.582;11.484;2023-02-21T15:41:31;163.63;;;83.47;;
68765;SDS011;55756;45.582;11.484;2023-02-21T15:44:13;160.10;;;82.43;;
68765;SDS011;55756;45.582;11.484;2023-02-21T15:46:54;168.95;;;84.45;;
68765;SDS011;55756;45.582;11.484;2023-02-21T15:49:34;162.52;;;83.70;;
68765;SDS011;55756;45.582;11.484;2023-02-21T15:52:04;162.00;;;84.30;;
68765;SDS011;55756;45.582;11.484;2023-02-21T15:54:32;161.02;;;81.30;;
68765;SDS011;55756;45.582;11.484;2023-02-21T15:59:36;166.93;;;80.85;;
68765;SDS011;55756;45.582;11.484;2023-02-21T16:02:16;153.95;;;80.25;;
68765;SDS011;55756;45.582;11.484;2023-02-21T16:04:48;169.93;;;83.30;;
68765;SDS011;55756;45.582;11.484;2023-02-21T16:07:16;170.48;;;82.82;;
68765;SDS011;55756;45.582;11.484;2023-02-21T16:10:08;165.40;;;84.60;;
68765;SDS011;55756;45.582;11.484;2023-02-21T16:12:40;164.40;;;83.05;;
68765;SDS011;55756;45.582;11.484;2023-02-21T16:15:41;168.30;;;83.28;;
68765;SDS011;55756;45.582;11.484;2023-02-21T16:18:02;161.57;;;80.88;;
68765;SDS011;55756;45.582;11.484;2023-02-21T16:25:53;161.18;;;81.30;;
68765;SDS011;55756;45.582;11.484;2023-02-21T16:28:20;172.65;;;84.18;;
68765;SDS011;55756;45.582;11.484;2023-02-21T16:30:46;166.73;;;83.55;;
68765;SDS011;55756;45.582;11.484;2023-02-21T16:33:12;186.05;;;85.95;;
68765;SDS011;55756;45.582;11.484;2023-02-21T16:35:38;170.45;;;87.68;;
68765;SDS011;55756;45.582;11.484;2023-02-21T16:38:04;171.48;;;86.30;;
68765;SDS011;55756;45.582;11.484;2023-02-21T16:40:33;169.20;;;82.72;;
68765;SDS011;55756;45.582;11.484;2023-02-21T16:43:01;167.82;;;85.45;;
68765;SDS011;55756;45.582;11.484;2023-02-21T16:45:28;170.80;;;83.57;;
68765;SDS011;55756;45.582;11.484;2023-02-21T16:48:04;176.52;;;85.70;;
68765;SDS011;55756;45.582;11.484;2023-02-21T16:50:37;168.52;;;83.97;;
68765;SDS011;55756;45.582;11.484;2023-02-21T16:53:04;167.02;;;82.55;;
68765;SDS011;55756;45.582;11.484;2023-02-21T16:55:30;163.68;;;81.43;;
68765;SDS011;55756;45.582;11.484;2023-02-21T16:58:05;169.45;;;82.03;;
68765;SDS011;55756;45.582;11.484;2023-02-21T17:00:35;170.00;;;84.88;;
68765;SDS011;55756;45.582;11.484;2023-02-21T17:03:01;169.90;;;84.43;;
68765;SDS011;55756;45.582;11.484;2023-02-21T17:05:27;164.80;;;84.32;;
68765;SDS011;55756;45.582;11.484;2023-02-21T17:07:53;160.88;;;82.53;;
68765;SDS011;55756;45.582;11.484;2023-02-21T17:10:20;162.55;;;82.07;;
68765;SDS011;55756;45.582;11.484;2023-02-21T17:12:46;160.40;;;83.28;;
68765;SDS011;55756;45.582;11.484;2023-02-21T17:15:13;161.93;;;83.97;;
68765;SDS011;55756;45.582;11.484;2023-02-21T17:17:39;169.15;;;84.95;;
68765;SDS011;55756;45.582;11.484;2023-02-21T17:20:06;166.82;;;83.75;;
68765;SDS011;55756;45.582;11.484;2023-02-21T17:22:32;171.98;;;84.25;;
68765;SDS011;55756;45.582;11.484;2023-02-21T17:24:58;165.65;;;82.55;;
68765;SDS011;55756;45.582;11.484;2023-02-21T17:27:24;165.77;;;85.35;;
68765;SDS011;55756;45.582;11.484;2023-02-21T17:29:50;165.00;;;83.63;;
68765;SDS011;55756;45.582;11.484;2023-02-21T17:32:15;166.10;;;84.40;;
68765;SDS011;55756;45.582;11.484;2023-02-21T17:34:42;161.63;;;81.30;;
68765;SDS011;55756;45.582;11.484;2023-02-21T17:37:07;166.75;;;85.15;;